sensor_id;sensor_type;location;lat;lon;timestamp;P1;durP1;ratioP1;P2;durP2;ratioP2
69912;SDS011;57198;52.082;5.108;2023-12-14T00:01:27;11.97;;;8.13;;
69912;SDS011;57198;52.082;5.108;2023-12-14T00:03:55;8.18;;;7.03;;
69912;SDS011;57198;52.082;5.108;2023-12-14T00:06:22;8.90;;;7.88;;
69912;SDS011;57198;52.082;5.108;2023-12-14T00:08:50;9.75;;;7.60;;
69912;SDS011;57198;52.082;5.108;2023-12-14T00:11:17;8.13;;;6.90;;
69912;SDS011;57198;52.082;5.108;2023-12-14T00:13:45;8.13;;;7.33;;
69912;SDS011;57198;52.082;5.108;2023-12-14T00:16:12;8.82;;;7.22;;
69912;SDS011;57198;52.082;5.108;2023-12-14T00:18:39;7.72;;;6.93;;
69912;SDS011;57198;52.082;5.108;2023-12-14T00:21:07;7.63;;;6.38;;
69912;SDS011;57198;52.082;5.108;2023-12-14T00:23:34;7.60;;;6.90;;
69912;SDS011;57198;52.082;5.108;2023-12-14T00:26:01;7.80;;;7.00;;
69912;SDS011;57198;52.082;5.108;2023-12-14T00:28:29;7.75;;;6.95;;
69912;SDS011;57198;52.082;5.108;2023-12-14T00:31:00;8.90;;;6.93;;
69912;SDS011;57198;52.082;5.108;2023-12-14T00:33:27;7.80;;;7.00;;
69912;SDS011;57198;52.082;5.108;2023-12-14T00:35:55;8.00;;;7.20;;
69912;SDS011;57198;52.082;5.108;2023-12-14T00:38:22;7.60;;;6.90;;
69912;SDS011;57198;52.082;5.108;2023-12-14T00:40:49;7.18;;;6.40;;
69912;SDS011;57198;52.082;5.108;2023-12-14T00:43:17;7.35;;;6.60;;
69912;SDS011;57198;52.082;5.108;2023-12-14T00:45:44;7.50;;;6.78;;
69912;SDS011;57198;52.082;5.108;2023-12-14T00:48:12;7.80;;;6.93;;
69912;SDS011;57198;52.082;5.108;2023-12-14T00:50:39;6.93;;;6.30;;
69912;SDS011;57198;52.082;5.108;2023-12-14T00:53:07;7.85;;;6.90;;
69912;SDS011;57198;52.082;5.108;2023-12-14T00:55:34;9.15;;;7.35;;
69912;SDS011;57198;52.082;5.108;2023-12-14T00:58:02;8.18;;;7.40;;
69912;SDS011;57198;52.082;5.108;2023-12-14T01:00:29;8.15;;;7.25;;
69912;SDS011;57198;52.082;5.108;2023-12-14T01:02:57;8.10;;;7.30;;
69912;SDS011;57198;52.082;5.108;2023-12-14T01:05:24;7.78;;;6.95;;
69912;SDS011;57198;52.082;5.108;2023-12-14T01:07:52;8.05;;;7.25;;
69912;SDS011;57198;52.082;5.108;2023-12-14T01:10:19;9.07;;;6.90;;
69912;SDS011;57198;52.082;5.108;2023-12-14T01:12:47;8.10;;;7.30;;
69912;SDS011;57198;52.082;5.108;2023-12-14T01:15:14;8.87;;;7.03;;
69912;SDS011;57198;52.082;5.108;2023-12-14T01:17:41;7.82;;;7.00;;
69912;SDS011;57198;52.082;5.108;2023-12-14T01:20:09;8.05;;;7.25;;
69912;SDS011;57198;52.082;5.108;2023-12-14T01:22:37;9.02;;;7.07;;
69912;SDS011;57198;52.082;5.108;2023-12-14T01:25:05;8.35;;;7.40;;
69912;SDS011;57198;52.082;5.108;2023-12-14T01:27:32;10.53;;;7.10;;
69912;SDS011;57198;52.082;5.108;2023-12-14T01:30:00;7.95;;;7.15;;
69912;SDS011;57198;52.082;5.108;2023-12-14T01:32:27;8.07;;;7.28;;
69912;SDS011;57198;52.082;5.108;2023-12-14T01:34:55;9.00;;;7.50;;
69912;SDS011;57198;52.082;5.108;2023-12-14T01:37:22;8.13;;;7.32;;
69912;SDS011;57198;52.082;5.108;2023-12-14T01:39:49;8.67;;;7.60;;
69912;SDS011;57198;52.082;5.108;2023-12-14T01:42:17;9.40;;;7.15;;
69912;SDS011;57198;52.082;5.108;2023-12-14T01:44:44;8.95;;;7.40;;
69912;SDS011;57198;52.082;5.108;2023-12-14T01:47:11;8.35;;;6.80;;
69912;SDS011;57198;52.082;5.108;2023-12-14T01:49:39;9.88;;;7.55;;
69912;SDS011;57198;52.082;5.108;2023-12-14T01:52:08;9.53;;;8.17;;
69912;SDS011;57198;52.082;5.108;2023-12-14T01:54:35;8.68;;;7.20;;
69912;SDS011;57198;52.082;5.108;2023-12-14T01:57:03;10.85;;;8.43;;
69912;SDS011;57198;52.082;5.108;2023-12-14T01:59:30;8.48;;;7.32;;
69912;SDS011;57198;52.082;5.108;2023-12-14T02:01:58;7.93;;;7.13;;
69912;SDS011;57198;52.082;5.108;2023-12-14T02:04:27;7.67;;;6.97;;
69912;SDS011;57198;52.082;5.108;2023-12-14T02:06:55;8.40;;;7.45;;
69912;SDS011;57198;52.082;5.108;2023-12-14T02:09:23;8.70;;;7.80;;
69912;SDS011;57198;52.082;5.108;2023-12-14T02:11:51;8.52;;;7.00;;
69912;SDS011;57198;52.082;5.108;2023-12-14T02:14:21;11.18;;;8.57;;
69912;SDS011;57198;52.082;5.108;2023-12-14T02:16:48;8.13;;;7.10;;
69912;SDS011;57198;52.082;5.108;2023-12-14T02:19:16;10.45;;;7.63;;
69912;SDS011;57198;52.082;5.108;2023-12-14T02:21:43;9.18;;;7.75;;
69912;SDS011;57198;52.082;5.108;2023-12-14T02:24:11;8.30;;;7.50;;
69912;SDS011;57198;52.082;5.108;2023-12-14T02:26:38;10.15;;;8.13;;
69912;SDS011;57198;52.082;5.108;2023-12-14T02:29:05;10.17;;;7.70;;
69912;SDS011;57198;52.082;5.108;2023-12-14T02:31:33;12.90;;;8.27;;
69912;SDS011;57198;52.082;5.108;2023-12-14T02:34:00;9.63;;;8.35;;
69912;SDS011;57198;52.082;5.108;2023-12-14T02:36:28;10.23;;;7.43;;
69912;SDS011;57198;52.082;5.108;2023-12-14T02:38:55;10.82;;;8.57;;
69912;SDS011;57198;52.082;5.108;2023-12-14T02:41:22;10.77;;;8.67;;
69912;SDS011;57198;52.082;5.108;2023-12-14T02:43:50;9.95;;;8.30;;
69912;SDS011;57198;52.082;5.108;2023-12-14T02:46:17;10.35;;;7.97;;
69912;SDS011;57198;52.082;5.108;2023-12-14T02:48:44;11.63;;;8.32;;
69912;SDS011;57198;52.082;5.108;2023-12-14T02:51:12;10.10;;;8.30;;
69912;SDS011;57198;52.082;5.108;2023-12-14T02:53:41;10.97;;;8.63;;
69912;SDS011;57198;52.082;5.108;2023-12-14T02:56:09;9.82;;;7.68;;
69912;SDS011;57198;52.082;5.108;2023-12-14T02:58:37;9.95;;;8.43;;
69912;SDS011;57198;52.082;5.108;2023-12-14T03:01:05;8.57;;;7.60;;
69912;SDS011;57198;52.082;5.108;2023-12-14T03:03:32;8.90;;;7.65;;
69912;SDS011;57198;52.082;5.108;2023-12-14T03:06:00;9.67;;;7.70;;
69912;SDS011;57198;52.082;5.108;2023-12-14T03:08:27;8.77;;;7.70;;
69912;SDS011;57198;52.082;5.108;2023-12-14T03:10:54;8.80;;;7.47;;
69912;SDS011;57198;52.082;5.108;2023-12-14T03:13:22;9.07;;;7.72;;
69912;SDS011;57198;52.082;5.108;2023-12-14T03:15:49;9.93;;;8.48;;
69912;SDS011;57198;52.082;5.108;2023-12-14T03:18:16;8.67;;;6.83;;
69912;SDS011;57198;52.082;5.108;2023-12-14T03:20:44;10.00;;;8.02;;
69912;SDS011;57198;52.082;5.108;2023-12-14T03:23:12;9.48;;;7.80;;
69912;SDS011;57198;52.082;5.108;2023-12-14T03:25:39;10.65;;;7.60;;
69912;SDS011;57198;52.082;5.108;2023-12-14T03:28:07;13.85;;;7.97;;
69912;SDS011;57198;52.082;5.108;2023-12-14T03:30:34;12.57;;;7.13;;
69912;SDS011;57198;52.082;5.108;2023-12-14T03:33:02;12.93;;;7.85;;
69912;SDS011;57198;52.082;5.108;2023-12-14T03:35:31;11.35;;;8.43;;
69912;SDS011;57198;52.082;5.108;2023-12-14T03:37:59;10.38;;;7.95;;
69912;SDS011;57198;52.082;5.108;2023-12-14T03:40:26;10.30;;;8.23;;
69912;SDS011;57198;52.082;5.108;2023-12-14T03:42:53;10.50;;;7.47;;
69912;SDS011;57198;52.082;5.108;2023-12-14T03:45:21;12.82;;;7.65;;
69912;SDS011;57198;52.082;5.108;2023-12-14T03:47:48;12.63;;;8.38;;
69912;SDS011;57198;52.082;5.108;2023-12-14T03:50:15;11.90;;;8.18;;
69912;SDS011;57198;52.082;5.108;2023-12-14T03:52:43;13.05;;;7.53;;
69912;SDS011;57198;52.082;5.108;2023-12-14T03:55:11;12.37;;;7.50;;
69912;SDS011;57198;52.082;5.108;2023-12-14T03:57:38;13.23;;;8.02;;
69912;SDS011;57198;52.082;5.108;2023-12-14T04:00:07;10.77;;;6.82;;
69912;SDS011;57198;52.082;5.108;2023-12-14T04:02:36;9.90;;;6.47;;
69912;SDS011;57198;52.082;5.108;2023-12-14T04:05:04;11.43;;;7.60;;
69912;SDS011;57198;52.082;5.108;2023-12-14T04:07:32;10.87;;;6.97;;
69912;SDS011;57198;52.082;5.108;2023-12-14T04:09:59;8.77;;;6.95;;
69912;SDS011;57198;52.082;5.108;2023-12-14T04:12:27;11.25;;;7.03;;
69912;SDS011;57198;52.082;5.108;2023-12-14T04:14:54;11.00;;;7.05;;
69912;SDS011;57198;52.082;5.108;2023-12-14T04:17:22;8.85;;;6.13;;
69912;SDS011;57198;52.082;5.108;2023-12-14T04:19:49;9.37;;;6.37;;
69912;SDS011;57198;52.082;5.108;2023-12-14T04:22:17;10.90;;;6.00;;
69912;SDS011;57198;52.082;5.108;2023-12-14T04:24:44;9.60;;;6.10;;
69912;SDS011;57198;52.082;5.108;2023-12-14T04:27:12;7.35;;;6.03;;
69912;SDS011;57198;52.082;5.108;2023-12-14T04:29:39;7.18;;;5.57;;
69912;SDS011;57198;52.082;5.108;2023-12-14T04:32:07;10.23;;;5.80;;
69912;SDS011;57198;52.082;5.108;2023-12-14T04:34:34;10.98;;;5.47;;
69912;SDS011;57198;52.082;5.108;2023-12-14T04:37:02;9.90;;;6.00;;
69912;SDS011;57198;52.082;5.108;2023-12-14T04:39:29;7.40;;;5.47;;
69912;SDS011;57198;52.082;5.108;2023-12-14T04:41:57;8.65;;;4.80;;
69912;SDS011;57198;52.082;5.108;2023-12-14T04:44:24;7.73;;;5.40;;
69912;SDS011;57198;52.082;5.108;2023-12-14T04:46:51;8.38;;;5.07;;
69912;SDS011;57198;52.082;5.108;2023-12-14T04:49:19;7.65;;;6.00;;
69912;SDS011;57198;52.082;5.108;2023-12-14T04:51:46;7.63;;;5.13;;
69912;SDS011;57198;52.082;5.108;2023-12-14T04:54:13;5.75;;;5.10;;
69912;SDS011;57198;52.082;5.108;2023-12-14T04:56:41;7.63;;;5.47;;
69912;SDS011;57198;52.082;5.108;2023-12-14T04:59:11;5.72;;;5.15;;
69912;SDS011;57198;52.082;5.108;2023-12-14T05:01:38;6.70;;;5.70;;
69912;SDS011;57198;52.082;5.108;2023-12-14T05:04:06;9.95;;;6.05;;
69912;SDS011;57198;52.082;5.108;2023-12-14T05:06:33;6.47;;;5.75;;
69912;SDS011;57198;52.082;5.108;2023-12-14T05:09:01;6.20;;;5.40;;
69912;SDS011;57198;52.082;5.108;2023-12-14T05:11:31;7.15;;;5.20;;
69912;SDS011;57198;52.082;5.108;2023-12-14T05:13:59;7.85;;;6.15;;
69912;SDS011;57198;52.082;5.108;2023-12-14T05:16:26;8.05;;;5.30;;
69912;SDS011;57198;52.082;5.108;2023-12-14T05:18:54;8.43;;;5.70;;
69912;SDS011;57198;52.082;5.108;2023-12-14T05:21:22;7.47;;;5.37;;
69912;SDS011;57198;52.082;5.108;2023-12-14T05:23:49;6.70;;;4.95;;
69912;SDS011;57198;52.082;5.108;2023-12-14T05:26:17;7.65;;;5.43;;
69912;SDS011;57198;52.082;5.108;2023-12-14T05:28:44;6.53;;;5.13;;
69912;SDS011;57198;52.082;5.108;2023-12-14T05:31:12;6.55;;;4.93;;
69912;SDS011;57198;52.082;5.108;2023-12-14T05:33:39;5.23;;;4.73;;
69912;SDS011;57198;52.082;5.108;2023-12-14T05:36:07;6.18;;;5.15;;
69912;SDS011;57198;52.082;5.108;2023-12-14T05:38:40;7.10;;;5.28;;
69912;SDS011;57198;52.082;5.108;2023-12-14T05:41:08;6.38;;;5.03;;
69912;SDS011;57198;52.082;5.108;2023-12-14T05:43:36;6.18;;;5.35;;
69912;SDS011;57198;52.082;5.108;2023-12-14T05:46:04;7.73;;;4.80;;
69912;SDS011;57198;52.082;5.108;2023-12-14T05:48:31;6.10;;;5.50;;
69912;SDS011;57198;52.082;5.108;2023-12-14T05:51:00;6.07;;;5.47;;
69912;SDS011;57198;52.082;5.108;2023-12-14T05:53:27;8.43;;;5.00;;
69912;SDS011;57198;52.082;5.108;2023-12-14T05:55:55;5.72;;;5.22;;
69912;SDS011;57198;52.082;5.108;2023-12-14T05:58:23;5.67;;;5.17;;
69912;SDS011;57198;52.082;5.108;2023-12-14T06:00:50;6.88;;;4.88;;
69912;SDS011;57198;52.082;5.108;2023-12-14T06:03:17;6.40;;;5.28;;
69912;SDS011;57198;52.082;5.108;2023-12-14T06:05:45;6.40;;;5.03;;
69912;SDS011;57198;52.082;5.108;2023-12-14T06:08:12;5.97;;;5.38;;
69912;SDS011;57198;52.082;5.108;2023-12-14T06:10:40;5.73;;;4.87;;
69912;SDS011;57198;52.082;5.108;2023-12-14T06:13:07;6.80;;;4.78;;
69912;SDS011;57198;52.082;5.108;2023-12-14T06:15:35;6.07;;;4.60;;
69912;SDS011;57198;52.082;5.108;2023-12-14T06:18:02;4.72;;;4.28;;
69912;SDS011;57198;52.082;5.108;2023-12-14T06:20:31;5.93;;;4.90;;
69912;SDS011;57198;52.082;5.108;2023-12-14T06:22:58;5.30;;;4.40;;
69912;SDS011;57198;52.082;5.108;2023-12-14T06:25:26;6.63;;;5.32;;
69912;SDS011;57198;52.082;5.108;2023-12-14T06:27:53;5.45;;;4.95;;
69912;SDS011;57198;52.082;5.108;2023-12-14T06:30:21;6.15;;;4.95;;
69912;SDS011;57198;52.082;5.108;2023-12-14T06:32:48;6.60;;;5.90;;
69912;SDS011;57198;52.082;5.108;2023-12-14T06:35:16;6.03;;;5.23;;
69912;SDS011;57198;52.082;5.108;2023-12-14T06:37:43;5.95;;;5.10;;
69912;SDS011;57198;52.082;5.108;2023-12-14T06:40:11;6.13;;;5.20;;
69912;SDS011;57198;52.082;5.108;2023-12-14T06:42:38;9.50;;;6.18;;
69912;SDS011;57198;52.082;5.108;2023-12-14T06:45:06;6.30;;;5.70;;
69912;SDS011;57198;52.082;5.108;2023-12-14T06:47:33;7.77;;;5.40;;
69912;SDS011;57198;52.082;5.108;2023-12-14T06:50:01;6.63;;;5.25;;
69912;SDS011;57198;52.082;5.108;2023-12-14T06:52:28;9.02;;;6.55;;
69912;SDS011;57198;52.082;5.108;2023-12-14T06:54:56;7.70;;;5.40;;
69912;SDS011;57198;52.082;5.108;2023-12-14T06:57:23;7.35;;;5.30;;
69912;SDS011;57198;52.082;5.108;2023-12-14T06:59:53;6.93;;;5.37;;
69912;SDS011;57198;52.082;5.108;2023-12-14T07:02:20;7.10;;;4.93;;
69912;SDS011;57198;52.082;5.108;2023-12-14T07:04:48;8.63;;;5.45;;
69912;SDS011;57198;52.082;5.108;2023-12-14T07:07:17;5.07;;;4.63;;
69912;SDS011;57198;52.082;5.108;2023-12-14T07:09:45;6.70;;;5.13;;
69912;SDS011;57198;52.082;5.108;2023-12-14T07:12:12;6.23;;;5.57;;
69912;SDS011;57198;52.082;5.108;2023-12-14T07:14:40;7.32;;;4.90;;
69912;SDS011;57198;52.082;5.108;2023-12-14T07:17:08;6.82;;;5.35;;
69912;SDS011;57198;52.082;5.108;2023-12-14T07:19:35;5.28;;;4.78;;
69912;SDS011;57198;52.082;5.108;2023-12-14T07:22:03;5.97;;;5.38;;
69912;SDS011;57198;52.082;5.108;2023-12-14T07:24:30;8.03;;;4.60;;
69912;SDS011;57198;52.082;5.108;2023-12-14T07:27:14;6.80;;;4.82;;
69912;SDS011;57198;52.082;5.108;2023-12-14T07:29:41;6.03;;;5.18;;
69912;SDS011;57198;52.082;5.108;2023-12-14T07:32:08;6.95;;;5.25;;
69912;SDS011;57198;52.082;5.108;2023-12-14T07:34:36;7.53;;;5.30;;
69912;SDS011;57198;52.082;5.108;2023-12-14T07:37:03;8.23;;;5.77;;
69912;SDS011;57198;52.082;5.108;2023-12-14T07:39:32;8.98;;;5.45;;
69912;SDS011;57198;52.082;5.108;2023-12-14T07:41:59;6.32;;;5.80;;
69912;SDS011;57198;52.082;5.108;2023-12-14T07:44:27;6.82;;;5.15;;
69912;SDS011;57198;52.082;5.108;2023-12-14T07:46:57;6.97;;;5.57;;
69912;SDS011;57198;52.082;5.108;2023-12-14T07:49:25;6.03;;;5.40;;
69912;SDS011;57198;52.082;5.108;2023-12-14T07:51:52;5.85;;;5.25;;
69912;SDS011;57198;52.082;5.108;2023-12-14T07:54:20;6.07;;;5.30;;
69912;SDS011;57198;52.082;5.108;2023-12-14T07:56:47;7.50;;;5.47;;
69912;SDS011;57198;52.082;5.108;2023-12-14T07:59:14;7.38;;;6.13;;
69912;SDS011;57198;52.082;5.108;2023-12-14T08:01:42;6.20;;;5.30;;
69912;SDS011;57198;52.082;5.108;2023-12-14T08:04:09;6.65;;;5.88;;
69912;SDS011;57198;52.082;5.108;2023-12-14T08:06:38;6.20;;;5.60;;
69912;SDS011;57198;52.082;5.108;2023-12-14T08:09:05;8.25;;;7.22;;
69912;SDS011;57198;52.082;5.108;2023-12-14T08:11:33;6.93;;;6.22;;
69912;SDS011;57198;52.082;5.108;2023-12-14T08:14:00;6.47;;;5.87;;
69912;SDS011;57198;52.082;5.108;2023-12-14T08:16:29;7.60;;;5.80;;
69912;SDS011;57198;52.082;5.108;2023-12-14T08:18:57;6.78;;;6.18;;
69912;SDS011;57198;52.082;5.108;2023-12-14T08:21:24;7.43;;;5.10;;
69912;SDS011;57198;52.082;5.108;2023-12-14T08:23:52;8.63;;;5.47;;
69912;SDS011;57198;52.082;5.108;2023-12-14T08:26:19;5.93;;;5.40;;
69912;SDS011;57198;52.082;5.108;2023-12-14T08:28:47;6.22;;;5.22;;
69912;SDS011;57198;52.082;5.108;2023-12-14T08:31:14;6.20;;;5.50;;
69912;SDS011;57198;52.082;5.108;2023-12-14T08:33:42;6.85;;;6.10;;
69912;SDS011;57198;52.082;5.108;2023-12-14T08:36:15;6.40;;;5.78;;
69912;SDS011;57198;52.082;5.108;2023-12-14T08:38:45;9.27;;;8.37;;
69912;SDS011;57198;52.082;5.108;2023-12-14T08:41:13;8.63;;;6.20;;
69912;SDS011;57198;52.082;5.108;2023-12-14T08:43:42;8.82;;;6.68;;
69912;SDS011;57198;52.082;5.108;2023-12-14T08:46:09;7.40;;;6.50;;
69912;SDS011;57198;52.082;5.108;2023-12-14T08:48:37;7.57;;;6.53;;
69912;SDS011;57198;52.082;5.108;2023-12-14T08:51:05;6.00;;;5.40;;
69912;SDS011;57198;52.082;5.108;2023-12-14T08:53:32;5.82;;;5.30;;
69912;SDS011;57198;52.082;5.108;2023-12-14T08:56:00;6.32;;;5.57;;
69912;SDS011;57198;52.082;5.108;2023-12-14T08:58:29;5.43;;;4.80;;
69912;SDS011;57198;52.082;5.108;2023-12-14T09:00:56;5.40;;;4.90;;
69912;SDS011;57198;52.082;5.108;2023-12-14T09:03:24;6.00;;;4.43;;
69912;SDS011;57198;52.082;5.108;2023-12-14T09:05:53;5.38;;;4.88;;
69912;SDS011;57198;52.082;5.108;2023-12-14T09:08:20;6.10;;;5.50;;
69912;SDS011;57198;52.082;5.108;2023-12-14T09:10:48;7.88;;;4.70;;
69912;SDS011;57198;52.082;5.108;2023-12-14T09:13:15;5.82;;;5.22;;
69912;SDS011;57198;52.082;5.108;2023-12-14T09:15:43;6.90;;;5.00;;
69912;SDS011;57198;52.082;5.108;2023-12-14T09:18:10;6.95;;;6.07;;
69912;SDS011;57198;52.082;5.108;2023-12-14T09:20:38;7.68;;;6.45;;
69912;SDS011;57198;52.082;5.108;2023-12-14T09:23:07;6.35;;;5.60;;
69912;SDS011;57198;52.082;5.108;2023-12-14T09:25:34;6.72;;;5.47;;
69912;SDS011;57198;52.082;5.108;2023-12-14T09:28:02;7.03;;;5.47;;
69912;SDS011;57198;52.082;5.108;2023-12-14T09:30:29;5.88;;;4.45;;
69912;SDS011;57198;52.082;5.108;2023-12-14T09:32:57;6.15;;;4.63;;
69912;SDS011;57198;52.082;5.108;2023-12-14T09:35:24;4.95;;;4.55;;
69912;SDS011;57198;52.082;5.108;2023-12-14T09:37:52;4.57;;;4.18;;
69912;SDS011;57198;52.082;5.108;2023-12-14T09:40:20;6.10;;;4.23;;
69912;SDS011;57198;52.082;5.108;2023-12-14T09:42:48;5.60;;;4.35;;
69912;SDS011;57198;52.082;5.108;2023-12-14T09:45:19;3.80;;;3.60;;
69912;SDS011;57198;52.082;5.108;2023-12-14T09:47:47;4.57;;;4.18;;
69912;SDS011;57198;52.082;5.108;2023-12-14T09:50:15;6.40;;;4.40;;
69912;SDS011;57198;52.082;5.108;2023-12-14T09:52:43;3.70;;;3.40;;
69912;SDS011;57198;52.082;5.108;2023-12-14T09:55:12;4.20;;;3.90;;
69912;SDS011;57198;52.082;5.108;2023-12-14T09:57:39;3.40;;;3.20;;
69912;SDS011;57198;52.082;5.108;2023-12-14T10:00:07;3.05;;;2.85;;
69912;SDS011;57198;52.082;5.108;2023-12-14T10:02:40;3.20;;;2.55;;
69912;SDS011;57198;52.082;5.108;2023-12-14T10:05:11;3.00;;;2.80;;
69912;SDS011;57198;52.082;5.108;2023-12-14T10:07:42;2.70;;;2.50;;
69912;SDS011;57198;52.082;5.108;2023-12-14T10:10:11;3.53;;;3.22;;
69912;SDS011;57198;52.082;5.108;2023-12-14T10:12:52;3.00;;;2.80;;
69912;SDS011;57198;52.082;5.108;2023-12-14T10:15:19;2.80;;;2.60;;
69912;SDS011;57198;52.082;5.108;2023-12-14T10:17:53;2.60;;;2.40;;
69912;SDS011;57198;52.082;5.108;2023-12-14T10:20:21;2.80;;;2.40;;
69912;SDS011;57198;52.082;5.108;2023-12-14T10:22:50;2.60;;;2.40;;
69912;SDS011;57198;52.082;5.108;2023-12-14T10:25:18;2.65;;;2.45;;
69912;SDS011;57198;52.082;5.108;2023-12-14T10:27:46;2.78;;;2.58;;
69912;SDS011;57198;52.082;5.108;2023-12-14T10:30:17;2.73;;;2.30;;
69912;SDS011;57198;52.082;5.108;2023-12-14T10:32:48;2.92;;;2.60;;
69912;SDS011;57198;52.082;5.108;2023-12-14T10:35:16;8.60;;;6.18;;
69912;SDS011;57198;52.082;5.108;2023-12-14T10:37:46;6.22;;;5.60;;
69912;SDS011;57198;52.082;5.108;2023-12-14T10:40:14;8.70;;;6.30;;
69912;SDS011;57198;52.082;5.108;2023-12-14T10:42:43;6.27;;;5.37;;
69912;SDS011;57198;52.082;5.108;2023-12-14T10:45:11;6.68;;;5.30;;
69912;SDS011;57198;52.082;5.108;2023-12-14T10:47:46;5.82;;;4.47;;
69912;SDS011;57198;52.082;5.108;2023-12-14T10:50:15;5.68;;;3.33;;
69912;SDS011;57198;52.082;5.108;2023-12-14T10:52:43;3.40;;;3.10;;
69912;SDS011;57198;52.082;5.108;2023-12-14T10:55:15;4.03;;;3.60;;
69912;SDS011;57198;52.082;5.108;2023-12-14T10:57:45;3.38;;;3.08;;
69912;SDS011;57198;52.082;5.108;2023-12-14T11:00:15;7.55;;;3.90;;
69912;SDS011;57198;52.082;5.108;2023-12-14T11:02:47;3.60;;;3.30;;
69912;SDS011;57198;52.082;5.108;2023-12-14T11:05:16;3.63;;;3.33;;
69912;SDS011;57198;52.082;5.108;2023-12-14T11:10:21;5.32;;;3.28;;
69912;SDS011;57198;52.082;5.108;2023-12-14T11:12:56;3.30;;;2.67;;
69912;SDS011;57198;52.082;5.108;2023-12-14T11:15:27;3.53;;;3.10;;
69912;SDS011;57198;52.082;5.108;2023-12-14T11:23:16;4.57;;;3.83;;
69912;SDS011;57198;52.082;5.108;2023-12-14T11:25:44;4.00;;;3.53;;
69912;SDS011;57198;52.082;5.108;2023-12-14T11:28:22;8.18;;;6.32;;
69912;SDS011;57198;52.082;5.108;2023-12-14T11:30:53;3.53;;;3.17;;
69912;SDS011;57198;52.082;5.108;2023-12-14T11:33:22;3.80;;;2.70;;
69912;SDS011;57198;52.082;5.108;2023-12-14T11:35:50;3.55;;;3.25;;
69912;SDS011;57198;52.082;5.108;2023-12-14T11:38:19;3.70;;;3.40;;
69912;SDS011;57198;52.082;5.108;2023-12-14T11:40:48;4.63;;;3.30;;
69912;SDS011;57198;52.082;5.108;2023-12-14T11:43:17;3.85;;;3.13;;
69912;SDS011;57198;52.082;5.108;2023-12-14T11:45:48;3.90;;;3.50;;
69912;SDS011;57198;52.082;5.108;2023-12-14T11:48:16;5.15;;;3.42;;
69912;SDS011;57198;52.082;5.108;2023-12-14T11:50:44;4.53;;;2.90;;
69912;SDS011;57198;52.082;5.108;2023-12-14T11:53:11;3.40;;;3.13;;
69912;SDS011;57198;52.082;5.108;2023-12-14T11:55:45;3.20;;;2.90;;
69912;SDS011;57198;52.082;5.108;2023-12-14T11:58:13;9.47;;;3.27;;
69912;SDS011;57198;52.082;5.108;2023-12-14T12:00:41;7.03;;;3.25;;
69912;SDS011;57198;52.082;5.108;2023-12-14T12:03:09;3.67;;;3.35;;
69912;SDS011;57198;52.082;5.108;2023-12-14T12:08:09;4.10;;;3.00;;
69912;SDS011;57198;52.082;5.108;2023-12-14T12:10:37;3.37;;;2.90;;
69912;SDS011;57198;52.082;5.108;2023-12-14T12:13:06;6.13;;;3.53;;
69912;SDS011;57198;52.082;5.108;2023-12-14T12:15:34;5.07;;;3.92;;
69912;SDS011;57198;52.082;5.108;2023-12-14T12:18:08;5.88;;;4.15;;
69912;SDS011;57198;52.082;5.108;2023-12-14T12:20:36;5.72;;;4.38;;
69912;SDS011;57198;52.082;5.108;2023-12-14T12:23:04;4.03;;;3.53;;
69912;SDS011;57198;52.082;5.108;2023-12-14T12:25:32;6.40;;;4.80;;
69912;SDS011;57198;52.082;5.108;2023-12-14T12:28:00;6.50;;;4.85;;
69912;SDS011;57198;52.082;5.108;2023-12-14T12:30:27;4.80;;;4.18;;
69912;SDS011;57198;52.082;5.108;2023-12-14T12:32:55;5.40;;;4.47;;
69912;SDS011;57198;52.082;5.108;2023-12-14T12:35:23;5.87;;;4.57;;
69912;SDS011;57198;52.082;5.108;2023-12-14T12:37:52;5.97;;;4.60;;
69912;SDS011;57198;52.082;5.108;2023-12-14T12:40:22;5.95;;;4.80;;
69912;SDS011;57198;52.082;5.108;2023-12-14T12:42:52;5.97;;;4.95;;
69912;SDS011;57198;52.082;5.108;2023-12-14T12:45:19;6.68;;;5.60;;
69912;SDS011;57198;52.082;5.108;2023-12-14T12:47:49;6.90;;;5.03;;
69912;SDS011;57198;52.082;5.108;2023-12-14T12:50:17;5.55;;;4.93;;
69912;SDS011;57198;52.082;5.108;2023-12-14T12:52:44;6.63;;;5.95;;
69912;SDS011;57198;52.082;5.108;2023-12-14T12:55:15;6.63;;;5.93;;
69912;SDS011;57198;52.082;5.108;2023-12-14T12:57:42;7.22;;;6.53;;
69912;SDS011;57198;52.082;5.108;2023-12-14T13:00:10;7.03;;;6.33;;
69912;SDS011;57198;52.082;5.108;2023-12-14T13:02:38;7.32;;;6.10;;
69912;SDS011;57198;52.082;5.108;2023-12-14T13:05:06;7.68;;;6.85;;
69912;SDS011;57198;52.082;5.108;2023-12-14T13:07:35;8.30;;;5.60;;
69912;SDS011;57198;52.082;5.108;2023-12-14T13:10:04;9.13;;;5.90;;
69912;SDS011;57198;52.082;5.108;2023-12-14T13:12:50;7.50;;;5.87;;
69912;SDS011;57198;52.082;5.108;2023-12-14T13:15:18;7.40;;;6.07;;
69912;SDS011;57198;52.082;5.108;2023-12-14T13:17:45;7.90;;;6.28;;
69912;SDS011;57198;52.082;5.108;2023-12-14T13:20:13;8.32;;;5.80;;
69912;SDS011;57198;52.082;5.108;2023-12-14T13:22:40;6.97;;;6.28;;
69912;SDS011;57198;52.082;5.108;2023-12-14T13:25:08;7.07;;;5.60;;
69912;SDS011;57198;52.082;5.108;2023-12-14T13:27:35;8.18;;;6.80;;
69912;SDS011;57198;52.082;5.108;2023-12-14T13:30:04;9.38;;;6.68;;
69912;SDS011;57198;52.082;5.108;2023-12-14T13:32:32;7.07;;;5.93;;
69912;SDS011;57198;52.082;5.108;2023-12-14T13:34:59;8.50;;;6.32;;
69912;SDS011;57198;52.082;5.108;2023-12-14T13:37:27;7.10;;;5.47;;
69912;SDS011;57198;52.082;5.108;2023-12-14T13:39:54;7.00;;;5.45;;
69912;SDS011;57198;52.082;5.108;2023-12-14T13:42:22;6.55;;;5.93;;
69912;SDS011;57198;52.082;5.108;2023-12-14T13:44:49;6.78;;;5.60;;
69912;SDS011;57198;52.082;5.108;2023-12-14T13:47:17;8.73;;;6.38;;
69912;SDS011;57198;52.082;5.108;2023-12-14T13:49:44;6.40;;;5.23;;
69912;SDS011;57198;52.082;5.108;2023-12-14T13:52:11;7.97;;;6.03;;
69912;SDS011;57198;52.082;5.108;2023-12-14T13:54:39;7.80;;;6.18;;
69912;SDS011;57198;52.082;5.108;2023-12-14T13:57:06;8.60;;;5.80;;
69912;SDS011;57198;52.082;5.108;2023-12-14T13:59:34;6.85;;;6.03;;
69912;SDS011;57198;52.082;5.108;2023-12-14T14:02:01;7.63;;;6.43;;
69912;SDS011;57198;52.082;5.108;2023-12-14T14:04:29;7.25;;;5.97;;
69912;SDS011;57198;52.082;5.108;2023-12-14T14:06:56;7.93;;;6.78;;
69912;SDS011;57198;52.082;5.108;2023-12-14T14:09:23;7.10;;;6.22;;
69912;SDS011;57198;52.082;5.108;2023-12-14T14:11:52;8.25;;;7.45;;
69912;SDS011;57198;52.082;5.108;2023-12-14T14:14:21;6.43;;;5.83;;
69912;SDS011;57198;52.082;5.108;2023-12-14T14:16:51;9.40;;;6.43;;
69912;SDS011;57198;52.082;5.108;2023-12-14T14:19:19;7.97;;;6.82;;
69912;SDS011;57198;52.082;5.108;2023-12-14T14:21:46;9.23;;;5.97;;
69912;SDS011;57198;52.082;5.108;2023-12-14T14:24:14;10.70;;;6.40;;
69912;SDS011;57198;52.082;5.108;2023-12-14T14:26:42;8.37;;;6.10;;
69912;SDS011;57198;52.082;5.108;2023-12-14T14:29:09;8.48;;;6.20;;
69912;SDS011;57198;52.082;5.108;2023-12-14T14:31:38;8.35;;;6.60;;
69912;SDS011;57198;52.082;5.108;2023-12-14T14:34:05;9.98;;;6.97;;
69912;SDS011;57198;52.082;5.108;2023-12-14T14:36:33;8.45;;;6.90;;
69912;SDS011;57198;52.082;5.108;2023-12-14T14:39:00;10.57;;;6.43;;
69912;SDS011;57198;52.082;5.108;2023-12-14T14:41:31;11.32;;;6.63;;
69912;SDS011;57198;52.082;5.108;2023-12-14T14:43:58;10.82;;;6.70;;
69912;SDS011;57198;52.082;5.108;2023-12-14T14:46:25;11.75;;;7.10;;
69912;SDS011;57198;52.082;5.108;2023-12-14T14:48:53;14.13;;;8.73;;
69912;SDS011;57198;52.082;5.108;2023-12-14T14:51:20;9.10;;;7.17;;
69912;SDS011;57198;52.082;5.108;2023-12-14T14:53:48;8.07;;;6.57;;
69912;SDS011;57198;52.082;5.108;2023-12-14T14:56:15;11.13;;;7.47;;
69912;SDS011;57198;52.082;5.108;2023-12-14T14:58:43;9.30;;;6.40;;
69912;SDS011;57198;52.082;5.108;2023-12-14T15:01:12;11.38;;;7.38;;